createdAt,value
2022-09-24T00:02:00.863Z,100446.30
2022-09-24T00:04:37.344Z,100443.35
2022-09-24T00:07:10.666Z,100444.35
2022-09-24T00:09:44.244Z,100443.87
2022-09-24T00:12:18.436Z,100437.36
2022-09-24T00:14:51.970Z,100437.12
2022-09-24T00:17:25.777Z,100440.14
2022-09-24T00:19:59.220Z,100437.36
2022-09-24T00:22:38.775Z,100439.81
2022-09-24T00:25:30.817Z,100438.67
2022-09-24T00:28:04.863Z,100438.05
2022-09-24T00:30:49.120Z,100433.45
2022-09-24T00:33:22.550Z,100431.01
2022-09-24T00:36:02.577Z,100430.45
2022-09-24T00:38:36.215Z,100436.54
2022-09-24T00:41:10.232Z,100432.95
2022-09-24T00:43:44.409Z,100436.75
2022-09-24T00:46:23.627Z,100436.67
2022-09-24T00:49:19.049Z,100434.73
2022-09-24T00:51:54.459Z,100430.02
2022-09-24T00:54:31.046Z,100425.19
2022-09-24T00:57:12.156Z,100427.67
2022-09-24T00:59:48.312Z,100429.70
2022-09-24T01:02:22.432Z,100426.77
2022-09-24T01:04:56.919Z,100424.58
2022-09-24T01:07:30.662Z,100417.17
2022-09-24T01:10:05.093Z,100414.08
2022-09-24T01:12:47.585Z,100419.50
2022-09-24T01:15:28.216Z,100415.66
2022-09-24T01:18:16.580Z,100417.23
2022-09-24T01:21:07.174Z,100417.46
2022-09-24T01:24:08.009Z,100416.82
2022-09-24T01:26:57.605Z,100412.09
2022-09-24T01:29:42.401Z,100409.89
2022-09-24T01:32:22.327Z,100406.23
2022-09-24T01:35:01.770Z,100405.27
2022-09-24T01:37:39.956Z,100405.30
2022-09-24T01:40:19.328Z,100405.20
2022-09-24T01:43:15.071Z,100402.54
2022-09-24T01:45:51.734Z,100403.74
2022-09-24T01:48:25.094Z,100403.96
2022-09-24T01:51:10.218Z,100408.18
2022-09-24T01:53:48.253Z,100405.59
2022-09-24T01:56:30.332Z,100407.98
2022-09-24T01:59:08.485Z,100406.66
2022-09-24T02:01:50.847Z,100406.36
2022-09-24T02:04:27.319Z,100399.84
2022-09-24T02:07:05.099Z,100404.48
2022-09-24T02:09:41.165Z,100404.52
2022-09-24T02:12:18.287Z,100399.88
2022-09-24T02:14:55.928Z,100397.73
2022-09-24T02:17:34.098Z,100396.05
2022-09-24T02:20:12.456Z,100396.48
2022-09-24T02:22:48.849Z,100397.45
2022-09-24T02:25:27.396Z,100396.30
2022-09-24T02:28:08.570Z,100396.35
2022-09-24T02:30:51.358Z,100396.63
2022-09-24T02:33:47.523Z,100397.47
2022-09-24T02:36:25.375Z,100393.64
2022-09-24T02:38:59.603Z,100395.11
2022-09-24T02:41:34.116Z,100401.70
2022-09-24T02:44:07.697Z,100399.13
2022-09-24T02:46:41.649Z,100396.16
2022-09-24T02:49:16.083Z,100395.00
2022-09-24T02:51:52.731Z,100395.83
2022-09-24T02:54:38.292Z,100390.80
2022-09-24T02:57:12.299Z,100390.45
2022-09-24T02:59:45.868Z,100388.93
2022-09-24T03:02:19.660Z,100389.23
2022-09-24T03:04:57.092Z,100386.48
2022-09-24T03:07:44.259Z,100385.91
2022-09-24T03:10:18.142Z,100383.75
2022-09-24T03:12:52.108Z,100385.42
2022-09-24T03:15:30.059Z,100383.64
2022-09-24T03:18:03.751Z,100378.29
2022-09-24T03:20:40.108Z,100380.98
2022-09-24T03:23:17.581Z,100378.20
2022-09-24T03:25:51.261Z,100374.67
2022-09-24T03:28:25.365Z,100374.35
2022-09-24T03:31:02.079Z,100373.81
2022-09-24T03:33:37.963Z,100371.33
2022-09-24T03:36:13.895Z,100372.27
2022-09-24T03:38:49.236Z,100370.74
2022-09-24T03:41:33.668Z,100373.04
2022-09-24T03:44:07.432Z,100373.66
2022-09-24T03:46:41.432Z,100375.05
2022-09-24T03:49:26.110Z,100373.48
2022-09-24T03:51:59.463Z,100374.73
2022-09-24T03:54:35.910Z,100376.88
2022-09-24T03:57:20.951Z,100380.28
2022-09-24T03:59:54.509Z,100381.98
2022-09-24T04:02:41.356Z,100384.16
2022-09-24T04:05:26.318Z,100390.63
2022-09-24T04:07:59.846Z,100389.48
2022-09-24T04:10:34.318Z,100390.10
2022-09-24T04:13:07.817Z,100390.03
2022-09-24T04:15:41.392Z,100393.95
2022-09-24T04:18:18.247Z,100389.84
2022-09-24T04:20:51.938Z,100391.29
2022-09-24T04:23:25.443Z,100387.50
2022-09-24T04:26:02.606Z,100387.05
2022-09-24T04:28:36.313Z,100385.99
2022-09-24T04:31:09.826Z,100385.88
2022-09-24T04:33:47.111Z,100381.53
2022-09-24T04:36:21.458Z,100385.00
2022-09-24T04:39:16.006Z,100387.40
2022-09-24T04:41:49.705Z,100386.52
2022-09-24T04:44:24.053Z,100388.29
2022-09-24T04:47:03.286Z,100390.63
2022-09-24T04:49:36.808Z,100390.42
2022-09-24T04:52:10.800Z,100390.01
2022-09-24T04:54:47.928Z,100390.61
2022-09-24T04:57:22.289Z,100388.53
2022-09-24T05:00:07.658Z,100394.49
2022-09-24T05:02:44.630Z,100392.91
2022-09-24T05:05:18.713Z,100395.27
2022-09-24T05:07:53.144Z,100393.98
2022-09-24T05:10:36.974Z,100390.27
2022-09-24T05:13:10.461Z,100381.09
2022-09-24T05:15:44.338Z,100383.61
2022-09-24T05:18:18.622Z,100381.84
2022-09-24T05:20:54.797Z,100380.52
2022-09-24T05:23:28.262Z,100377.76
2022-09-24T05:26:19.657Z,100376.55
2022-09-24T05:28:54.137Z,100380.63
2022-09-24T05:31:27.779Z,100380.79
2022-09-24T05:34:01.671Z,100377.89
2022-09-24T05:36:55.575Z,100377.95
2022-09-24T05:39:33.657Z,100374.38
2022-09-24T05:42:08.193Z,100371.77
2022-09-24T05:44:48.528Z,100368.88
2022-09-24T05:47:28.960Z,100367.04
2022-09-24T05:50:23.193Z,100374.20
2022-09-24T05:53:00.699Z,100372.17
2022-09-24T05:55:34.135Z,100373.34
2022-09-24T05:58:12.893Z,100374.40
2022-09-24T06:00:47.058Z,100378.59
2022-09-24T06:03:30.008Z,100382.46
2022-09-24T06:06:03.449Z,100385.33
2022-09-24T06:08:47.889Z,100384.09
2022-09-24T06:11:22.134Z,100387.16
2022-09-24T06:13:58.406Z,100388.09
2022-09-24T06:16:33.485Z,100389.27
2022-09-24T06:19:07.356Z,100385.35
2022-09-24T06:21:41.300Z,100389.88
2022-09-24T06:24:18.564Z,100386.48
2022-09-24T06:27:00.925Z,100383.28
2022-09-24T06:29:34.191Z,100382.53
2022-09-24T06:32:08.430Z,100382.88
2022-09-24T06:34:41.922Z,100383.29
2022-09-24T06:37:15.292Z,100382.95
2022-09-24T06:39:49.097Z,100381.11
2022-09-24T06:42:33.928Z,100379.10
2022-09-24T06:45:08.395Z,100378.59
2022-09-24T06:47:41.753Z,100377.64
2022-09-24T06:50:15.429Z,100373.42
2022-09-24T06:52:51.558Z,100373.82
2022-09-24T06:55:25.894Z,100376.61
2022-09-24T06:58:21.532Z,100378.83
2022-09-24T07:00:59.701Z,100382.91
2022-09-24T07:03:35.290Z,100381.92
2022-09-24T07:06:49.388Z,100385.12
2022-09-24T07:09:36.595Z,100388.76
2022-09-24T07:12:09.890Z,100389.98
2022-09-24T07:14:43.245Z,100388.73
2022-09-24T07:17:17.233Z,100393.89
2022-09-24T07:20:12.311Z,100402.08
2022-09-24T07:22:45.884Z,100401.76
2022-09-24T07:25:19.897Z,100403.84
2022-09-24T07:27:54.167Z,100405.50
2022-09-24T07:30:27.993Z,100401.56
2022-09-24T07:33:01.549Z,100401.77
2022-09-24T07:35:35.576Z,100402.89
2022-09-24T07:38:12.521Z,100406.04
2022-09-24T07:40:46.585Z,100407.77
2022-09-24T07:43:19.715Z,100398.50
2022-09-24T07:45:56.165Z,100396.85
2022-09-24T07:48:29.748Z,100396.09
2022-09-24T07:51:02.847Z,100392.28
2022-09-24T07:53:36.074Z,100388.81
2022-09-24T07:56:09.929Z,100395.19
2022-09-24T07:58:43.070Z,100394.23
2022-09-24T08:01:16.772Z,100396.34
2022-09-24T08:03:52.709Z,100396.59
2022-09-24T08:06:26.266Z,100395.90
2022-09-24T08:08:59.622Z,100396.14
2022-09-24T08:11:36.398Z,100396.80
2022-09-24T08:14:09.696Z,100398.43
2022-09-24T08:16:46.261Z,100398.73
2022-09-24T08:19:19.373Z,100397.31
2022-09-24T08:21:52.385Z,100397.86
2022-09-24T08:24:25.494Z,100399.39
2022-09-24T08:26:59.699Z,100401.41
2022-09-24T08:29:41.987Z,100397.63
2022-09-24T08:32:15.085Z,100400.83
2022-09-24T08:34:48.420Z,100400.46
2022-09-24T08:37:21.738Z,100403.85
2022-09-24T08:39:54.819Z,100405.08
2022-09-24T08:42:43.672Z,100401.91
2022-09-24T08:45:35.892Z,100404.29
2022-09-24T08:48:19.736Z,100406.44
2022-09-24T08:51:01.246Z,100401.93
2022-09-24T08:53:47.183Z,100402.49
2022-09-24T08:56:25.457Z,100397.59
2022-09-24T08:59:03.612Z,100396.31
2022-09-24T09:01:48.206Z,100396.67
2022-09-24T09:04:30.477Z,100397.44
2022-09-24T09:07:16.800Z,100397.44
2022-09-24T09:09:56.203Z,100393.48
2022-09-24T09:12:37.188Z,100392.52
2022-09-24T09:15:16.560Z,100391.52
2022-09-24T09:17:54.035Z,100389.92
2022-09-24T09:20:31.753Z,100390.83
2022-09-24T09:23:15.016Z,100394.33
2022-09-24T09:25:54.150Z,100393.30
2022-09-24T09:28:33.310Z,100391.96
2022-09-24T09:31:19.565Z,100389.23
2022-09-24T09:34:06.487Z,100389.27
2022-09-24T09:36:57.446Z,100386.20
2022-09-24T09:39:41.919Z,100381.63
2022-09-24T09:42:34.710Z,100376.09
2022-09-24T09:45:28.062Z,100372.04
2022-09-24T09:48:03.486Z,100371.38
2022-09-24T09:50:42.295Z,100372.13
2022-09-24T09:53:26.811Z,100370.15
2022-09-24T09:56:03.299Z,100368.33
2022-09-24T09:58:38.585Z,100369.02
2022-09-24T10:01:14.191Z,100369.32
2022-09-24T10:03:52.678Z,100370.70
2022-09-24T10:06:30.438Z,100366.96
2022-09-24T10:09:10.376Z,100367.77
2022-09-24T10:11:43.850Z,100365.85
2022-09-24T10:14:21.060Z,100366.67
2022-09-24T10:16:56.616Z,100365.95
2022-09-24T10:19:31.903Z,100367.08
2022-09-24T10:22:16.570Z,100368.50
2022-09-24T10:24:50.604Z,100370.17
2022-09-24T10:27:32.542Z,100371.19
2022-09-24T10:30:33.669Z,100376.73
2022-09-24T10:33:09.180Z,100372.69
2022-09-24T10:35:42.280Z,100368.96
2022-09-24T10:38:21.143Z,100365.83
2022-09-24T10:40:54.785Z,100365.34
2022-09-24T10:43:28.621Z,100365.80
2022-09-24T10:46:22.148Z,100359.83
2022-09-24T10:49:07.893Z,100356.38
2022-09-24T10:51:54.214Z,100355.47
2022-09-24T10:54:50.129Z,100353.84
2022-09-24T10:57:32.732Z,100352.68
2022-09-24T11:00:14.925Z,100350.40
2022-09-24T11:03:10.101Z,100349.05
2022-09-24T11:05:47.437Z,100348.45
2022-09-24T11:08:31.997Z,100346.86
2022-09-24T11:11:32.254Z,100347.30
2022-09-24T11:14:21.130Z,100346.85
2022-09-24T11:17:20.439Z,100345.32
2022-09-24T11:20:28.806Z,100339.02
2022-09-24T11:23:25.284Z,100336.38
2022-09-24T11:26:08.198Z,100335.45
2022-09-24T11:29:03.894Z,100338.18
2022-09-24T11:31:50.317Z,100336.17
2022-09-24T11:34:43.585Z,100331.42
2022-09-24T11:37:29.700Z,100335.34
2022-09-24T11:40:23.140Z,100334.83
2022-09-24T11:43:10.103Z,100332.36
2022-09-24T11:45:54.466Z,100329.43
2022-09-24T11:49:04.523Z,100326.90
2022-09-24T11:51:50.960Z,100327.20
2022-09-24T11:54:32.772Z,100326.16
2022-09-24T11:57:11.744Z,100323.70
2022-09-24T11:59:54.886Z,100321.03
2022-09-24T12:02:38.567Z,100318.81
2022-09-24T12:05:20.296Z,100312.36
2022-09-24T12:07:59.336Z,100309.67
2022-09-24T12:10:38.905Z,100309.72
2022-09-24T12:13:20.311Z,100301.55
2022-09-24T12:15:57.985Z,100299.59
2022-09-24T12:18:35.376Z,100301.39
2022-09-24T12:21:23.739Z,100300.15
2022-09-24T12:24:06.941Z,100297.19
2022-09-24T12:26:43.585Z,100295.59
2022-09-24T12:29:52.548Z,100298.11
2022-09-24T12:32:50.909Z,100296.45
2022-09-24T12:35:43.271Z,100290.13
2022-09-24T12:38:21.106Z,100292.77
2022-09-24T12:41:28.439Z,100292.29
2022-09-24T12:44:18.368Z,100291.14
2022-09-24T12:46:57.940Z,100289.61
2022-09-24T12:49:35.975Z,100285.34
2022-09-24T12:52:20.812Z,100289.23
2022-09-24T12:54:59.351Z,100289.90
2022-09-24T12:57:39.303Z,100291.16
2022-09-24T13:00:42.644Z,100289.52
2022-09-24T13:03:35.243Z,100289.80
2022-09-24T13:06:24.752Z,100291.79
2022-09-24T13:08:57.743Z,100294.80
2022-09-24T13:11:33.885Z,100298.95
2022-09-24T13:14:23.291Z,100295.73
2022-09-24T13:17:00.154Z,100293.45
2022-09-24T13:19:41.270Z,100299.15
2022-09-24T13:22:27.836Z,100295.09
2022-09-24T13:25:25.030Z,100290.68
2022-09-24T13:28:21.254Z,100292.66
2022-09-24T13:31:01.161Z,100290.64
2022-09-24T13:33:42.366Z,100287.05
2022-09-24T13:36:19.097Z,100282.41
2022-09-24T13:39:00.112Z,100280.14
2022-09-24T13:41:43.893Z,100275.77
2022-09-24T13:44:22.826Z,100279.14
2022-09-24T13:47:01.668Z,100276.16
2022-09-24T13:49:36.622Z,100282.91
2022-09-24T13:52:18.546Z,100280.35
2022-09-24T13:54:56.931Z,100279.83
2022-09-24T13:57:31.910Z,100277.16
2022-09-24T14:00:24.727Z,100273.88
2022-09-24T14:03:06.018Z,100274.64
2022-09-24T14:05:40.698Z,100270.98
2022-09-24T14:08:17.296Z,100270.53
2022-09-24T14:10:51.514Z,100271.83
2022-09-24T14:13:26.443Z,100267.75
2022-09-24T14:16:09.274Z,100264.88
2022-09-24T14:18:42.571Z,100262.62
2022-09-24T14:21:21.185Z,100264.29
2022-09-24T14:23:59.027Z,100262.77
2022-09-24T14:26:36.467Z,100266.10
2022-09-24T14:29:14.975Z,100259.35
2022-09-24T14:31:52.909Z,100260.26
2022-09-24T14:34:33.669Z,100256.45
2022-09-24T14:37:17.692Z,100253.38
2022-09-24T14:39:53.502Z,100257.36
2022-09-24T14:42:31.046Z,100257.23
2022-09-24T14:45:08.139Z,100255.54
2022-09-24T14:47:42.045Z,100252.41
2022-09-24T14:50:35.781Z,100254.23
2022-09-24T14:53:23.060Z,100251.39
2022-09-24T14:55:56.989Z,100254.88
2022-09-24T14:58:37.890Z,100251.63
2022-09-24T15:01:19.041Z,100251.10
2022-09-24T15:03:56.431Z,100249.59
2022-09-24T15:06:32.478Z,100247.62
2022-09-24T15:09:08.214Z,100244.12
2022-09-24T15:11:43.757Z,100246.66
2022-09-24T15:14:28.132Z,100241.17
2022-09-24T15:17:21.447Z,100246.02
2022-09-24T15:19:58.072Z,100246.73
2022-09-24T15:22:32.876Z,100245.52
2022-09-24T15:25:07.436Z,100245.29
2022-09-24T15:27:43.793Z,100245.95
2022-09-24T15:30:22.189Z,100244.83
2022-09-24T15:32:55.813Z,100245.10
2022-09-24T15:35:29.665Z,100245.05
2022-09-24T15:38:03.726Z,100247.48
2022-09-24T15:40:38.494Z,100244.40
2022-09-24T15:43:20.852Z,100242.42
2022-09-24T15:45:54.964Z,100246.21
2022-09-24T15:48:28.913Z,100245.23
2022-09-24T15:51:10.949Z,100236.92
2022-09-24T15:53:47.292Z,100245.84
2022-09-24T15:56:21.083Z,100244.28
2022-09-24T15:58:54.736Z,100246.66
2022-09-24T16:01:28.255Z,100245.30
2022-09-24T16:04:01.790Z,100244.48
2022-09-24T16:06:36.974Z,100246.06
2022-09-24T16:09:10.817Z,100244.50
2022-09-24T16:11:45.053Z,100242.67
2022-09-24T16:14:18.231Z,100246.23
2022-09-24T16:16:51.879Z,100243.19
2022-09-24T16:19:25.980Z,100243.30
2022-09-24T16:21:59.992Z,100246.29
2022-09-24T16:24:36.676Z,100247.09
2022-09-24T16:27:10.318Z,100249.58
2022-09-24T16:29:43.840Z,100250.69
2022-09-24T16:32:17.481Z,100251.20
2022-09-24T16:34:51.461Z,100250.80
2022-09-24T16:37:25.351Z,100252.67
2022-09-24T16:39:58.987Z,100249.91
2022-09-24T16:42:32.545Z,100249.05
2022-09-24T16:45:07.430Z,100248.52
2022-09-24T16:47:42.004Z,100251.05
2022-09-24T16:50:15.945Z,100252.77
2022-09-24T16:52:50.788Z,100255.02
2022-09-24T16:55:25.772Z,100251.91
2022-09-24T16:57:59.351Z,100254.04
2022-09-24T17:00:33.364Z,100253.98
2022-09-24T17:03:07.029Z,100249.99
2022-09-24T17:05:42.078Z,100247.15
2022-09-24T17:08:15.391Z,100248.03
2022-09-24T17:10:58.153Z,100248.92
2022-09-24T17:13:34.170Z,100247.06
2022-09-24T17:16:09.429Z,100249.81
2022-09-24T17:18:42.690Z,100249.05
2022-09-24T17:21:18.287Z,100251.73
2022-09-24T17:23:52.194Z,100253.88
2022-09-24T17:26:26.592Z,100252.77
2022-09-24T17:28:59.706Z,100253.05
2022-09-24T17:31:33.410Z,100255.73
2022-09-24T17:34:09.728Z,100259.02
2022-09-24T17:36:46.289Z,100260.16
2022-09-24T17:39:21.194Z,100257.24
2022-09-24T17:41:54.419Z,100258.39
2022-09-24T17:44:28.310Z,100256.59
2022-09-24T17:47:03.045Z,100256.25
2022-09-24T17:49:36.441Z,100259.58
2022-09-24T17:52:10.042Z,100261.82
2022-09-24T17:54:48.441Z,100266.62
2022-09-24T17:57:25.459Z,100268.75
2022-09-24T17:59:59.359Z,100266.34
2022-09-24T18:02:33.096Z,100267.11
2022-09-24T18:05:09.296Z,100267.15
2022-09-24T18:07:42.759Z,100271.64
2022-09-24T18:10:17.529Z,100272.73
2022-09-24T18:12:51.169Z,100272.39
2022-09-24T18:15:26.977Z,100269.95
2022-09-24T18:18:01.088Z,100272.70
2022-09-24T18:20:37.862Z,100273.71
2022-09-24T18:23:11.536Z,100271.79
2022-09-24T18:25:48.201Z,100275.83
2022-09-24T18:28:25.099Z,100273.84
2022-09-24T18:31:07.073Z,100274.98
2022-09-24T18:33:43.240Z,100274.10
2022-09-24T18:36:19.291Z,100270.73
2022-09-24T18:38:53.051Z,100274.23
2022-09-24T18:41:37.321Z,100271.11
2022-09-24T18:44:10.820Z,100274.39
2022-09-24T18:46:44.048Z,100273.56
2022-09-24T18:49:17.656Z,100280.95
2022-09-24T18:51:54.926Z,100276.10
2022-09-24T18:54:29.726Z,100282.02
2022-09-24T18:57:05.211Z,100286.43
2022-09-24T18:59:45.068Z,100287.04
2022-09-24T19:02:18.725Z,100286.27
2022-09-24T19:04:52.254Z,100285.66
2022-09-24T19:07:25.991Z,100288.42
2022-09-24T19:09:59.716Z,100294.27
2022-09-24T19:12:33.992Z,100292.04
2022-09-24T19:15:08.322Z,100290.66
2022-09-24T19:17:41.754Z,100296.81
2022-09-24T19:20:15.391Z,100295.54
2022-09-24T19:22:50.368Z,100292.34
2022-09-24T19:25:24.971Z,100291.77
2022-09-24T19:27:58.296Z,100291.52
2022-09-24T19:30:32.179Z,100287.11
2022-09-24T19:33:06.146Z,100290.03
2022-09-24T19:35:40.124Z,100289.35
2022-09-24T19:38:17.262Z,100294.37
2022-09-24T19:40:59.543Z,100296.55
2022-09-24T19:43:34.599Z,100293.17
2022-09-24T19:46:12.846Z,100293.76
2022-09-24T19:48:47.568Z,100291.33
2022-09-24T19:51:22.957Z,100291.70
2022-09-24T19:54:00.933Z,100288.25
2022-09-24T19:56:38.457Z,100285.38
2022-09-24T19:59:13.676Z,100288.64
2022-09-24T20:01:47.931Z,100288.16
2022-09-24T20:04:21.865Z,100287.16
2022-09-24T20:07:00.185Z,100286.25
2022-09-24T20:09:37.357Z,100282.79
2022-09-24T20:12:17.471Z,100283.57
2022-09-24T20:14:51.534Z,100282.69
2022-09-24T20:17:25.079Z,100285.39
2022-09-24T20:20:01.448Z,100283.76
2022-09-24T20:22:37.869Z,100282.56
2022-09-24T20:25:13.939Z,100276.70
2022-09-24T20:27:55.649Z,100273.92
2022-09-24T20:30:29.385Z,100273.48
2022-09-24T20:33:03.222Z,100272.93
2022-09-24T20:35:36.811Z,100273.86
2022-09-24T20:38:10.804Z,100269.80
2022-09-24T20:40:44.469Z,100270.82
2022-09-24T20:43:18.793Z,100270.48
2022-09-24T20:45:53.174Z,100269.73
2022-09-24T20:48:26.678Z,100270.81
2022-09-24T20:51:00.161Z,100268.17
2022-09-24T20:53:54.962Z,100272.08
2022-09-24T20:56:30.939Z,100278.41
2022-09-24T20:59:06.949Z,100278.05
2022-09-24T21:01:41.953Z,100276.48
2022-09-24T21:04:15.528Z,100279.71
2022-09-24T21:06:49.457Z,100275.00
2022-09-24T21:09:23.577Z,100272.61
2022-09-24T21:11:59.625Z,100272.57
2022-09-24T21:14:36.076Z,100277.79
2022-09-24T21:17:10.826Z,100276.04
2022-09-24T21:19:44.079Z,100282.63
2022-09-24T21:22:17.473Z,100282.71
2022-09-24T21:24:51.635Z,100283.34
2022-09-24T21:27:25.357Z,100283.59
2022-09-24T21:29:58.709Z,100286.02
2022-09-24T21:32:32.042Z,100283.09
2022-09-24T21:35:07.136Z,100280.52
2022-09-24T21:37:40.417Z,100281.89
2022-09-24T21:40:15.285Z,100280.04
2022-09-24T21:42:50.313Z,100277.52
2022-09-24T21:45:23.718Z,100277.48
2022-09-24T21:47:57.472Z,100274.40
2022-09-24T21:50:34.722Z,100273.27
2022-09-24T21:53:10.389Z,100273.93
2022-09-24T21:55:43.737Z,100276.52
2022-09-24T21:58:17.616Z,100276.89
2022-09-24T22:00:50.968Z,100279.92
2022-09-24T22:03:24.747Z,100277.60
2022-09-24T22:06:00.627Z,100278.58
2022-09-24T22:08:34.150Z,100273.69
2022-09-24T22:11:12.346Z,100274.75
2022-09-24T22:13:47.891Z,100275.94
2022-09-24T22:16:23.195Z,100274.75
2022-09-24T22:18:57.065Z,100272.66
2022-09-24T22:21:31.710Z,100271.34
2022-09-24T22:24:06.167Z,100273.34
2022-09-24T22:26:40.030Z,100275.44
2022-09-24T22:29:14.010Z,100279.64
2022-09-24T22:31:47.706Z,100275.21
2022-09-24T22:34:38.850Z,100276.52
2022-09-24T22:37:12.381Z,100274.00
2022-09-24T22:39:46.030Z,100274.52
2022-09-24T22:42:19.501Z,100269.88
2022-09-24T22:44:53.071Z,100263.65
2022-09-24T22:47:26.391Z,100265.16
2022-09-24T22:49:59.714Z,100262.33
2022-09-24T22:52:33.143Z,100262.17
2022-09-24T22:55:18.512Z,100259.91
2022-09-24T22:58:02.015Z,100259.64
2022-09-24T23:00:38.079Z,100256.41
2022-09-24T23:03:12.006Z,100250.25
2022-09-24T23:05:46.311Z,100244.28
2022-09-24T23:08:19.947Z,100241.66
2022-09-24T23:10:53.254Z,100244.78
2022-09-24T23:13:27.301Z,100244.55
2022-09-24T23:16:10.706Z,100246.56
2022-09-24T23:18:46.105Z,100247.64
2022-09-24T23:21:20.952Z,100245.91
2022-09-24T23:23:58.590Z,100247.64
2022-09-24T23:26:45.343Z,100250.05
2022-09-24T23:29:18.960Z,100250.50
2022-09-24T23:31:52.383Z,100247.81
2022-09-24T23:34:25.700Z,100247.48
2022-09-24T23:36:59.503Z,100245.71
2022-09-24T23:39:33.013Z,100246.16
2022-09-24T23:42:06.666Z,100243.46
2022-09-24T23:44:40.259Z,100245.58
2022-09-24T23:47:13.836Z,100246.16
2022-09-24T23:49:47.264Z,100249.01
2022-09-24T23:52:20.625Z,100247.64
2022-09-24T23:54:53.983Z,100240.97
2022-09-24T23:57:27.421Z,100241.48
